Time;durP1;ratioP1;P1;durP2;ratioP2;P2;SDS_P1;SDS_P2;PMS_P1;PMS_P2;Temp;Humidity;BMP_temperature;BMP_pressure;BME280_temperature;BME280_humidity;BME280_pressure;Samples;Min_cycle;Max_cycle;Signal;HPM_P1;HPM_P2
2021/06/24 00:00:58;;;;;;;1.80;1.02;;;17.20;65.00;;;;;;5043531;28;20024;-92
2021/06/24 00:03:25;;;;;;;1.80;1.02;;;;;;;;;;5051684;28;20035;-91
2021/06/24 00:05:51;;;;;;;4.15;0.93;;;;;;;;;;5052605;28;20045;-92
2021/06/24 00:08:17;;;;;;;1.92;1.00;;;;;;;;;;5052445;28;20096;-90
2021/06/24 00:10:43;;;;;;;1.13;0.90;;;;;;;;;;5068438;28;20059;-91
2021/06/24 00:13:09;;;;;;;2.65;1.23;;;;;;;;;;5051756;28;20029;-92
2021/06/24 00:15:36;;;;;;;1.27;0.70;;;17.00;64.50;;;;;;5064464;28;20094;-91
2021/06/24 00:18:03;;;;;;;1.38;0.80;;;17.00;64.40;;;;;;5050859;28;20013;-92
2021/06/24 00:20:29;;;;;;;1.08;0.82;;;;;;;;;;5034719;28;20119;-91
2021/06/24 00:22:55;;;;;;;2.35;0.70;;;;;;;;;;5052550;28;20032;-91
2021/06/24 00:25:21;;;;;;;1.30;0.70;;;;;;;;;;5046736;28;20034;-91
2021/06/24 00:27:47;;;;;;;1.48;0.70;;;;;;;;;;5038747;28;20017;-92
2021/06/24 00:30:14;;;;;;;4.28;1.13;;;;;;;;;;5037594;28;20025;-92
2021/06/24 00:32:40;;;;;;;2.70;0.80;;;;;;;;;;5036130;28;20021;-91
2021/06/24 00:35:07;;;;;;;6.43;1.17;;;;;;;;;;5051108;28;20039;-92
2021/06/24 00:37:34;;;;;;;1.45;0.85;;;;;;;;;;5049038;28;20075;-91
2021/06/24 00:40:00;;;;;;;1.75;1.30;;;;;;;;;;5050144;28;20039;-92
2021/06/24 00:42:29;;;;;;;1.75;0.98;;;;;;;;;;5044825;28;20067;-92
2021/06/24 00:44:55;;;;;;;4.95;0.80;;;;;;;;;;5034938;28;20476;-92
2021/06/24 00:47:21;;;;;;;3.28;1.10;;;;;;;;;;5051987;28;20492;-92
2021/06/24 00:49:47;;;;;;;2.40;1.13;;;;;;;;;;5053288;28;20029;-91
2021/06/24 00:52:13;;;;;;;1.42;1.20;;;;;;;;;;5048937;28;20025;-92
2021/06/24 00:54:39;;;;;;;4.28;0.80;;;;;;;;;;5051609;28;20033;-91
2021/06/24 00:57:06;;;;;;;2.58;0.90;;;;;;;;;;5050401;28;20036;-92
2021/06/24 00:59:33;;;;;;;1.27;1.05;;;;;;;;;;5052000;28;20068;-91
2021/06/24 01:01:59;;;;;;;1.35;0.95;;;;;;;;;;5069092;28;20051;-90
2021/06/24 01:04:25;;;;;;;3.38;1.65;;;;;;;;;;5039567;28;20034;-92
2021/06/24 01:06:52;;;;;;;3.92;1.33;;;17.40;65.70;;;;;;5061078;28;20159;-92
2021/06/24 01:09:18;;;;;;;1.98;1.02;;;;;;;;;;5055328;28;20017;-92
2021/06/24 01:11:45;;;;;;;3.58;1.50;;;;;;;;;;5054043;28;20082;-92
2021/06/24 01:14:11;;;;;;;3.22;1.55;;;;;;;;;;5055363;28;20037;-92
2021/06/24 01:16:37;;;;;;;1.42;1.08;;;;;;;;;;5055451;28;20027;-91
2021/06/24 01:19:04;;;;;;;1.27;1.02;;;;;;;;;;5054924;28;20033;-92
2021/06/24 01:21:30;;;;;;;1.95;1.15;;;;;;;;;;5069215;28;20017;-92
2021/06/24 01:23:56;;;;;;;1.92;1.25;;;;;;;;;;5054376;28;20111;-92
2021/06/24 01:26:22;;;;;;;1.83;1.13;;;;;;;;;;5055594;28;20117;-92
2021/06/24 01:28:48;;;;;;;1.60;1.30;;;;;;;;;;5051297;28;20036;-91
2021/06/24 01:31:14;;;;;;;1.98;1.13;;;;;;;;;;5054444;28;20403;-92
2021/06/24 01:33:41;;;;;;;2.10;1.60;;;;;;;;;;5054928;28;20115;-91
2021/06/24 01:36:07;;;;;;;2.67;1.70;;;;;;;;;;5055379;28;20072;-92
2021/06/24 01:38:33;;;;;;;1.40;1.10;;;;;;;;;;5055334;28;20033;-92
2021/06/24 01:40:59;;;;;;;2.40;1.70;;;;;;;;;;5070296;28;20025;-90
2021/06/24 01:43:26;;;;;;;5.85;1.77;;;17.40;66.10;;;;;;5049621;28;20033;-92
2021/06/24 01:45:54;;;;;;;2.50;2.13;;;17.30;66.30;;;;;;5050255;28;20044;-92
2021/06/24 01:48:21;;;;;;;1.75;1.00;;;17.30;67.10;;;;;;5035705;28;20391;-92
2021/06/24 01:50:47;;;;;;;4.75;1.30;;;;;;;;;;5053613;28;20036;-91
2021/06/24 01:53:14;;;;;;;4.53;1.80;;;;;;;;;;5053662;28;20241;-92
2021/06/24 01:55:40;;;;;;;1.58;1.35;;;;;;;;;;5053305;28;20026;-92
2021/06/24 01:58:07;;;;;;;2.47;1.45;;;;;;;;;;5047656;28;20116;-92
2021/06/24 02:00:33;;;;;;;4.73;1.97;;;;;;;;;;5054764;28;20041;-92
2021/06/24 02:03:00;;;;;;;3.67;2.13;;;;;;;;;;5054388;28;20363;-92
2021/06/24 02:05:26;;;;;;;1.77;1.40;;;;;;;;;;5054643;28;20055;-93
2021/06/24 02:07:52;;;;;;;6.50;3.88;;;;;;;;;;5053299;28;20028;-92
2021/06/24 02:10:18;;;;;;;2.85;1.70;;;;;;;;;;5050177;28;20025;-92
2021/06/24 02:12:44;;;;;;;4.82;2.20;;;;;;;;;;5059021;28;20029;-93
2021/06/24 02:15:12;;;;;;;2.95;1.90;;;17.40;67.40;;;;;;5054078;28;20064;-92
2021/06/24 02:17:39;;;;;;;7.10;2.03;;;17.40;67.90;;;;;;5053567;28;20032;-94
2021/06/24 02:20:06;;;;;;;4.57;1.63;;;;;;;;;;5053266;28;20035;-92
2021/06/24 02:22:32;;;;;;;2.28;1.60;;;;;;;;;;5069060;28;20071;-92
2021/06/24 02:24:58;;;;;;;6.63;1.52;;;;;;;;;;5053015;28;20032;-91
2021/06/24 02:27:24;;;;;;;2.83;1.80;;;;;;;;;;5054262;28;20040;-91
2021/06/24 02:29:50;;;;;;;2.45;1.85;;;;;;;;;;5054058;28;20029;-92
2021/06/24 02:32:16;;;;;;;4.50;2.42;;;;;;;;;;5054567;28;20017;-91
2021/06/24 02:34:43;;;;;;;5.22;2.45;;;17.60;68.90;;;;;;5056069;28;20117;-91
2021/06/24 02:37:09;;;;;;;2.22;2.00;;;;;;;;;;5047404;28;20110;-93
2021/06/24 02:39:34;;;;;;;7.30;1.50;;;;;;;;;;5045960;28;20033;-92
2021/06/24 02:42:00;;;;;;;7.43;1.77;;;;;;;;;;5053840;28;20551;-91
2021/06/24 02:44:27;;;;;;;6.90;2.20;;;;;;;;;;5052336;28;20115;-92
2021/06/24 02:46:53;;;;;;;3.67;1.48;;;;;;;;;;5037537;28;20033;-91
2021/06/24 02:49:19;;;;;;;2.75;1.80;;;;;;;;;;5063777;28;20028;-91
2021/06/24 02:51:48;;;;;;;3.30;2.10;;;;;;;;;;5053783;28;20025;-91
2021/06/24 02:54:14;;;;;;;2.45;2.25;;;;;;;;;;5053543;28;20037;-91
2021/06/24 02:56:41;;;;;;;2.53;1.73;;;;;;;;;;5052419;28;20584;-92
2021/06/24 02:59:07;;;;;;;2.55;1.70;;;;;;;;;;5053408;28;20064;-92
2021/06/24 03:01:33;;;;;;;4.15;2.60;;;;;;;;;;5053318;28;20498;-92
2021/06/24 03:03:59;;;;;;;7.47;2.10;;;;;;;;;;5052863;28;20036;-92
2021/06/24 03:06:25;;;;;;;2.55;1.95;;;;;;;;;;5053410;28;20044;-92
2021/06/24 03:08:51;;;;;;;6.85;1.80;;;;;;;;;;5053255;28;20021;-90
2021/06/24 03:11:18;;;;;;;4.90;1.88;;;;;;;;;;5039643;28;20029;-92
2021/06/24 03:13:47;;;;;;;4.80;1.92;;;;;;;;;;5066233;28;20085;-91
2021/06/24 03:16:13;;;;;;;5.93;2.60;;;;;;;;;;5049671;28;20033;-91
2021/06/24 03:18:40;;;;;;;4.28;2.22;;;;;;;;;;5068210;28;20033;-92
2021/06/24 03:21:06;;;;;;;5.53;2.30;;;;;;;;;;5053016;28;20021;-92
2021/06/24 03:23:32;;;;;;;2.17;1.55;;;;;;;;;;5068549;28;20060;-92
2021/06/24 03:25:58;;;;;;;2.90;1.77;;;;;;;;;;5053091;28;20033;-91
2021/06/24 03:28:24;;;;;;;5.25;1.58;;;;;;;;;;5052163;28;20032;-90
2021/06/24 03:30:50;;;;;;;1.83;1.30;;;;;;;;;;5051988;28;20024;-91
2021/06/24 03:33:16;;;;;;;2.92;2.22;;;;;;;;;;5052943;28;20096;-92
2021/06/24 03:35:47;;;;;;;6.07;1.85;;;;;;;;;;5051795;28;20025;-93
2021/06/24 03:38:13;;;;;;;1.65;1.02;;;;;;;;;;5052924;28;20052;-92
2021/06/24 03:40:39;;;;;;;1.65;0.80;;;;;;;;;;5050879;28;20087;-91
2021/06/24 03:43:05;;;;;;;1.70;0.80;;;;;;;;;;5051002;28;20481;-92
2021/06/24 03:45:31;;;;;;;7.30;1.58;;;;;;;;;;5052170;28;20078;-92
2021/06/24 03:47:57;;;;;;;3.72;0.40;;;;;;;;;;5052422;28;20078;-92
2021/06/24 03:50:23;;;;;;;0.82;0.65;;;;;;;;;;5051228;28;20493;-92
2021/06/24 03:52:49;;;;;;;1.02;0.50;;;;;;;;;;5051952;28;20070;-92
2021/06/24 03:55:17;;;;;;;0.75;0.63;;;;;;;;;;5067976;28;20047;-91
2021/06/24 03:57:43;;;;;;;2.63;0.88;;;;;;;;;;5042618;28;20044;-91
2021/06/24 04:00:10;;;;;;;1.20;0.60;;;;;;;;;;5042687;28;20028;-91
2021/06/24 04:02:36;;;;;;;0.60;0.47;;;;;;;;;;5070952;28;20032;-90
2021/06/24 04:05:02;;;;;;;0.93;0.50;;;;;;;;;;5067789;28;20489;-91
2021/06/24 04:07:28;;;;;;;0.40;0.40;;;;;;;;;;5051706;28;20535;-90
2021/06/24 04:09:54;;;;;;;1.17;0.73;;;;;;;;;;5052009;28;20032;-92
2021/06/24 04:12:20;;;;;;;0.60;0.47;;;;;;;;;;5067868;28;20024;-90
2021/06/24 04:14:46;;;;;;;0.43;0.40;;;;;;;;;;5050830;28;20112;-90
2021/06/24 04:17:12;;;;;;;0.73;0.38;;;;;;;;;;5047537;28;20478;-90
2021/06/24 04:19:38;;;;;;;0.70;0.50;;;;;;;;;;5049869;28;20033;-89
2021/06/24 04:22:04;;;;;;;1.17;0.73;;;;;;;;;;5051192;28;20022;-91
2021/06/24 04:24:30;;;;;;;0.60;0.50;;;;;;;;;;5043484;28;20045;-90
2021/06/24 04:26:56;;;;;;;0.90;0.60;;;;;;;;;;5035179;28;20029;-90
2021/06/24 04:29:22;;;;;;;0.60;0.45;;;;;;;;;;5052388;28;20025;-90
2021/06/24 04:31:48;;;;;;;1.90;1.15;;;;;;;;;;5046931;28;20170;-90
2021/06/24 04:34:14;;;;;;;2.58;1.10;;;;;;;;;;5048004;28;20039;-91
2021/06/24 04:36:43;;;;;;;0.75;0.63;;;;;;;;;;5053881;28;20048;-90
2021/06/24 04:39:10;;;;;;;1.30;0.60;;;;;;;;;;5052167;28;20026;-92
2021/06/24 04:41:37;;;;;;;0.50;0.47;;;;;;;;;;5056060;28;20458;-91
2021/06/24 04:44:03;;;;;;;1.70;0.60;;;;;;;;;;5055951;28;20501;-90
2021/06/24 04:46:29;;;;;;;0.40;0.40;;;;;;;;;;5054997;28;20490;-90
2021/06/24 04:48:55;;;;;;;0.30;0.30;;;;;;;;;;5054677;28;20083;-91
2021/06/24 04:51:21;;;;;;;0.45;0.45;;;;;;;;;;5050080;28;20025;-90
2021/06/24 04:53:47;;;;;;;0.30;0.30;;;;;;;;;;5051822;28;20025;-90
2021/06/24 04:56:13;;;;;;;3.53;0.57;;;;;;;;;;5051293;28;20032;-89
2021/06/24 04:58:38;;;;;;;0.65;0.50;;;;;;;;;;5068260;28;20112;-90
2021/06/24 05:01:04;;;;;;;0.40;0.40;;;;;;;;;;5054701;28;20031;-90
2021/06/24 05:03:30;;;;;;;0.95;0.40;;;;;;;;;;5055213;28;20040;-90
2021/06/24 05:05:57;;;;;;;0.52;0.40;;;;;;;;;;5055398;28;20029;-90
2021/06/24 05:08:26;;;;;;;0.35;0.30;;;;;;;;;;5055275;28;20017;-90
2021/06/24 05:10:52;;;;;;;0.32;0.30;;;;;;;;;;5060277;28;20028;-90
2021/06/24 05:13:18;;;;;;;0.57;0.40;;;;;;;;;;5049411;28;20111;-91
2021/06/24 05:15:45;;;;;;;0.20;0.20;;;;;;;;;;5054995;28;20086;-90
2021/06/24 05:18:13;;;;;;;4.85;0.55;;;16.40;76.90;;;;;;5054668;28;20112;-89
2021/06/24 05:20:39;;;;;;;0.98;0.63;;;;;;;;;;5038960;28;20522;-90
2021/06/24 05:23:06;;;;;;;1.13;1.00;;;;;;;;;;5051898;28;20025;-91
2021/06/24 05:25:32;;;;;;;1.48;0.90;;;;;;;;;;5058938;28;20493;-90
2021/06/24 05:27:58;;;;;;;1.35;0.60;;;;;;;;;;5069922;28;20075;-91
2021/06/24 05:30:24;;;;;;;0.85;0.40;;;;;;;;;;5055223;28;20428;-91
2021/06/24 05:32:50;;;;;;;0.30;0.30;;;;;;;;;;5053863;28;20021;-90
2021/06/24 05:35:16;;;;;;;0.88;0.30;;;;;;;;;;5055292;28;20024;-89
2021/06/24 05:37:42;;;;;;;0.45;0.45;;;;;;;;;;5054829;28;20017;-90
2021/06/24 05:40:09;;;;;;;1.98;0.38;;;;;;;;;;5050364;28;20120;-90
2021/06/24 05:42:35;;;;;;;2.30;0.45;;;;;;;;;;5042870;28;20025;-91
2021/06/24 05:45:01;;;;;;;0.25;0.25;;;;;;;;;;5054167;28;20749;-90
2021/06/24 05:47:27;;;;;;;0.70;0.40;;;;;;;;;;5053122;28;20028;-90
2021/06/24 05:49:53;;;;;;;0.30;0.30;;;;;;;;;;5054100;28;20106;-90
2021/06/24 05:52:19;;;;;;;0.65;0.40;;;;;;;;;;5055053;28;20547;-91
2021/06/24 05:54:45;;;;;;;0.82;0.63;;;;;;;;;;5054574;28;20138;-90
2021/06/24 05:57:11;;;;;;;0.60;0.52;;;;;;;;;;5054822;28;20140;-90
2021/06/24 05:59:37;;;;;;;0.65;0.50;;;;;;;;;;5067194;28;20084;-91
2021/06/24 06:02:03;;;;;;;0.52;0.45;;;;;;;;;;5053698;28;20060;-91
2021/06/24 06:04:29;;;;;;;1.15;0.60;;;;;;;;;;5048780;28;20455;-90
2021/06/24 06:06:55;;;;;;;0.55;0.55;;;;;;;;;;5049109;28;20527;-91
2021/06/24 06:09:21;;;;;;;3.90;0.88;;;;;;;;;;5054523;28;20029;-89
2021/06/24 06:11:47;;;;;;;1.02;0.60;;;;;;;;;;5053678;28;20040;-90
2021/06/24 06:14:13;;;;;;;1.63;0.60;;;;;;;;;;5068769;28;20036;-86
2021/06/24 06:16:40;;;;;;;0.60;0.60;;;;;;;;;;5046103;28;20793;-83
2021/06/24 06:19:06;;;;;;;1.10;0.60;;;;;;;;;;5048572;28;20033;-81
2021/06/24 06:21:32;;;;;;;1.17;0.90;;;;;;;;;;5048553;28;20036;-86
2021/06/24 06:23:59;;;;;;;1.60;1.45;;;;;;;;;;5051459;28;20029;-86
2021/06/24 06:26:25;;;;;;;1.77;1.20;;;;;;;;;;5051432;28;20039;-86
2021/06/24 06:28:52;;;;;;;1.95;1.48;;;;;;;;;;5050918;28;20048;-86
2021/06/24 06:31:19;;;;;;;1.73;1.30;;;17.60;71.60;;;;;;5048320;28;20124;-87
2021/06/24 06:33:45;;;;;;;0.73;0.70;;;;;;;;;;5050175;28;20116;-87
2021/06/24 06:36:11;;;;;;;0.80;0.50;;;;;;;;;;5080047;28;20021;-86
2021/06/24 06:38:37;;;;;;;3.33;0.50;;;;;;;;;;5051112;28;20032;-89
2021/06/24 06:41:03;;;;;;;0.47;0.40;;;;;;;;;;5051137;28;20055;-88
2021/06/24 06:43:29;;;;;;;0.77;0.55;;;;;;;;;;5050504;28;20051;-87
2021/06/24 06:45:55;;;;;;;0.50;0.30;;;;;;;;;;5047585;28;20028;-87
2021/06/24 06:48:21;;;;;;;0.95;0.40;;;;;;;;;;5046991;28;20401;-87
2021/06/24 06:50:48;;;;;;;0.82;0.40;;;;;;;;;;5050773;28;20021;-87
2021/06/24 06:53:14;;;;;;;0.40;0.40;;;;;;;;;;5050549;28;20033;-87
2021/06/24 06:55:40;;;;;;;0.60;0.60;;;;;;;;;;5048591;28;20039;-86
2021/06/24 06:58:07;;;;;;;0.73;0.60;;;;;;;;;;5063975;28;20169;-85
2021/06/24 07:00:33;;;;;;;1.25;1.05;;;;;;;;;;5044061;28;20582;-85
2021/06/24 07:03:00;;;;;;;1.67;0.52;;;;;;;;;;5051743;28;20025;-88
2021/06/24 07:05:26;;;;;;;0.50;0.50;;;;;;;;;;5051745;28;20040;-87
2021/06/24 07:07:52;;;;;;;1.13;0.60;;;;;;;;;;5051426;28;20631;-87
2021/06/24 07:10:18;;;;;;;0.70;0.60;;;;;;;;;;5047440;28;20386;-87
2021/06/24 07:12:44;;;;;;;12.00;0.80;;;;;;;;;;5049634;28;20025;-88
2021/06/24 07:15:11;;;;;;;0.88;0.50;;;;;;;;;;5049217;28;20044;-86
2021/06/24 07:17:37;;;;;;;0.70;0.57;;;;;;;;;;5050582;28;20623;-86
2021/06/24 07:20:04;;;;;;;1.98;0.73;;;17.80;70.80;;;;;;5049621;28;20029;-87
2021/06/24 07:22:30;;;;;;;0.50;0.43;;;;;;;;;;5048292;28;20064;-87
2021/06/24 07:24:56;;;;;;;1.25;0.80;;;;;;;;;;5041807;28;20080;-88
2021/06/24 07:27:22;;;;;;;0.60;0.52;;;;;;;;;;5049077;28;20067;-86
2021/06/24 07:29:48;;;;;;;1.48;0.90;;;;;;;;;;5049185;28;20150;-86
2021/06/24 07:32:15;;;;;;;1.17;0.65;;;;;;;;;;5047506;28;20037;-86
2021/06/24 07:34:41;;;;;;;2.22;0.50;;;;;;;;;;5049919;28;20028;-85
2021/06/24 07:37:07;;;;;;;1.08;0.63;;;;;;;;;;5042061;28;20040;-86
2021/06/24 07:39:33;;;;;;;0.75;0.40;;;;;;;;;;5050589;28;20108;-86
2021/06/24 07:41:59;;;;;;;0.50;0.50;;;;;;;;;;5047651;28;20111;-86
2021/06/24 07:44:25;;;;;;;1.33;0.88;;;;;;;;;;5050672;28;20037;-86
2021/06/24 07:46:51;;;;;;;0.80;0.70;;;;;;;;;;5049906;28;20079;-86
2021/06/24 07:49:17;;;;;;;2.60;0.95;;;;;;;;;;5047490;28;20749;-87
2021/06/24 07:51:43;;;;;;;1.27;0.90;;;;;;;;;;5051448;28;20024;-86
2021/06/24 07:54:09;;;;;;;1.10;0.68;;;;;;;;;;5063712;28;20779;-88
2021/06/24 07:56:35;;;;;;;0.77;0.52;;;;;;;;;;5047255;28;20106;-85
2021/06/24 07:59:01;;;;;;;0.70;0.68;;;;;;;;;;5048012;28;20049;-85
2021/06/24 08:01:27;;;;;;;1.05;0.90;;;;;;;;;;5036567;28;20494;-86
2021/06/24 08:03:54;;;;;;;0.40;0.40;;;;;;;;;;5039163;28;20032;-85
2021/06/24 08:06:20;;;;;;;0.55;0.30;;;;;;;;;;5046297;28;20517;-85
2021/06/24 08:08:46;;;;;;;0.52;0.40;;;;;;;;;;5050615;28;20037;-89
2021/06/24 08:11:12;;;;;;;2.72;0.65;;;;;;;;;;5029636;28;20025;-86
2021/06/24 08:13:38;;;;;;;0.30;0.30;;;;;;;;;;5044699;28;20048;-87
2021/06/24 08:16:04;;;;;;;0.20;0.20;;;;;;;;;;5038233;28;20076;-85
2021/06/24 08:18:30;;;;;;;0.43;0.35;;;;;;;;;;5035336;28;20033;-85
2021/06/24 08:20:56;;;;;;;0.65;0.55;;;;;;;;;;5047921;28;20037;-87
2021/06/24 08:23:23;;;;;;;1.52;0.73;;;18.80;63.10;;;;;;5048011;28;20133;-86
2021/06/24 08:25:49;;;;;;;0.75;0.50;;;;;;;;;;5032416;28;20409;-86
2021/06/24 08:28:16;;;;;;;0.65;0.40;;;;;;;;;;5028681;28;20040;-87
2021/06/24 08:30:44;;;;;;;3.28;0.80;;;;;;;;;;5039626;28;20028;-86
2021/06/24 08:33:10;;;;;;;2.10;0.77;;;;;;;;;;5047302;28;20033;-85
2021/06/24 08:35:36;;;;;;;1.10;0.85;;;;;;;;;;5063548;28;20021;-86
2021/06/24 08:38:02;;;;;;;0.30;0.30;;;;;;;;;;5049508;28;20543;-84
2021/06/24 08:40:29;;;;;;;1.17;0.75;;;;;;;;;;5041185;28;20021;-85
2021/06/24 08:42:55;;;;;;;1.23;0.90;;;;;;;;;;5057666;28;20187;-86
2021/06/24 08:45:21;;;;;;;1.95;1.27;;;;;;;;;;5043707;28;20565;-86
2021/06/24 08:47:48;;;;;;;0.63;0.63;;;;;;;;;;5031966;28;20430;-87
2021/06/24 08:50:15;;;;;;;1.15;0.98;;;;;;;;;;5051767;28;20025;-90
2021/06/24 08:52:45;;;;;;;0.80;0.73;;;;;;;;;;5048982;28;20082;-89
2021/06/24 08:55:11;;;;;;;1.13;1.02;;;;;;;;;;5051275;28;20512;-89
2021/06/24 08:57:37;;;;;;;3.22;0.93;;;;;;;;;;5049886;28;20048;-87
2021/06/24 09:00:05;;;;;;;0.45;0.40;;;;;;;;;;5047504;28;20053;-87
2021/06/24 09:02:37;;;;;;;4.68;0.30;;;;;;;;;;5031778;28;20026;-88
2021/06/24 09:05:03;;;;;;;0.20;0.20;;;;;;;;;;5031541;28;20042;-89
2021/06/24 09:07:31;;;;;;;0.25;0.25;;;;;;;;;;5047476;28;20466;-89
2021/06/24 09:09:58;;;;;;;0.45;0.35;;;;;;;;;;5049120;28;20059;-87
2021/06/24 09:12:25;;;;;;;;;;;18.80;64.70;;;;;;5053726;28;20028;-89
2021/06/24 09:14:54;;;;;;;0.20;0.20;;;18.90;66.00;;;;;;5050091;28;20503;-87
2021/06/24 09:17:34;;;;;;;0.30;0.30;;;18.90;63.40;;;;;;5050100;28;20025;-88
2021/06/24 09:20:00;;;;;;;0.63;0.20;;;;;;;;;;5046126;28;20037;-88
2021/06/24 09:22:26;;;;;;;0.73;0.32;;;;;;;;;;5047427;28;20083;-88
2021/06/24 09:24:52;;;;;;;0.35;0.35;;;;;;;;;;5067065;28;20125;-89
2021/06/24 09:27:19;;;;;;;2.20;0.45;;;;;;;;;;5051916;28;20025;-86
2021/06/24 09:29:51;;;;;;;0.20;0.20;;;;;;;;;;5052697;28;20037;-89
2021/06/24 09:32:33;;;;;;;0.32;0.30;;;;;;;;;;5052292;28;20025;-88
2021/06/24 09:35:01;;;;;;;0.55;0.30;;;;;;;;;;5051407;28;20064;-87
2021/06/24 09:37:28;;;;;;;2.47;0.50;;;;;;;;;;5052628;28;20025;-88
2021/06/24 09:39:57;;;;;;;0.50;0.50;;;;;;;;;;5052534;28;20033;-88
2021/06/24 09:42:24;;;;;;;0.95;0.30;;;;;;;;;;5049855;28;20026;-88
2021/06/24 09:44:50;;;;;;;0.20;0.20;;;;;;;;;;5068428;28;20091;-89
2021/06/24 09:47:19;;;;;;;0.20;0.20;;;;;;;;;;5047126;28;20029;-88
2021/06/24 09:50:03;;;;;;;0.30;0.30;;;18.80;62.90;;;;;;5069313;28;20068;-88
2021/06/24 09:52:30;;;;;;;0.30;0.30;;;19.00;63.30;;;;;;5049533;28;20029;-88
2021/06/24 09:55:05;;;;;;;0.20;0.20;;;19.10;63.20;;;;;;5043843;28;20029;-88
2021/06/24 09:57:32;;;;;;;0.22;0.22;;;;;;;;;;5053455;28;20104;-89
2021/06/24 09:59:58;;;;;;;0.20;0.20;;;;;;;;;;5051502;28;20029;-88
2021/06/24 10:02:24;;;;;;;0.20;0.20;;;;;;;;;;5033113;28;20045;-88
2021/06/24 10:04:50;;;;;;;0.45;0.30;;;;;;;;;;5048773;28;20056;-88
2021/06/24 10:07:17;;;;;;;0.55;0.38;;;;;;;;;;5053193;28;20033;-88
2021/06/24 10:09:45;;;;;;;0.30;0.30;;;20.00;61.70;;;;;;5045074;28;20029;-88
2021/06/24 10:12:13;;;;;;;0.45;0.30;;;;;;;;;;5048694;28;20037;-87
2021/06/24 10:14:40;;;;;;;0.22;0.20;;;20.30;61.70;;;;;;5068371;28;20049;-88
2021/06/24 10:17:07;;;;;;;0.57;0.30;;;20.40;61.40;;;;;;5052635;28;20074;-88
2021/06/24 10:19:33;;;;;;;0.90;0.30;;;;;;;;;;5052168;28;20033;-87
2021/06/24 10:22:08;;;;;;;0.50;0.17;;;;;;;;;;5053185;28;20071;-88
2021/06/24 10:24:40;;;;;;;0.63;0.63;;;;;;;;;;5053107;28;20032;-89
2021/06/24 10:27:10;;;;;;;0.40;0.20;;;21.00;56.40;;;;;;5068262;28;20521;-88
2021/06/24 10:29:48;;;;;;;0.20;0.20;;;21.10;77.20;;;;;;5032087;28;20520;-88
2021/06/24 10:32:31;;;;;;;0.28;0.20;;;21.10;56.10;;;;;;5051450;28;20136;-88
2021/06/24 10:34:59;;;;;;;0.40;0.30;;;21.10;54.20;;;;;;5049003;28;20529;-89
2021/06/24 10:37:26;;;;;;;1.02;0.13;;;20.90;54.20;;;;;;5049119;28;20037;-86
2021/06/24 10:39:55;;;;;;;0.68;0.30;;;20.80;56.80;;;;;;5052814;28;20060;-89
2021/06/24 10:42:22;;;;;;;0.30;0.30;;;;;;;;;;5067080;28;20468;-89
2021/06/24 10:44:48;;;;;;;0.68;0.60;;;;;;;;;;5067243;28;20025;-89
2021/06/24 10:47:15;;;;;;;0.98;0.30;;;;;;;;;;5051487;28;20045;-88
2021/06/24 10:49:43;;;;;;;0.27;0.20;;;;;;;;;;5052434;28;20068;-89
2021/06/24 10:52:27;;;;;;;0.20;0.20;;;;;;;;;;5044862;28;20182;-89
2021/06/24 10:54:54;;;;;;;0.47;0.28;;;20.60;57.70;;;;;;5050920;28;20055;-91
2021/06/24 10:57:37;;;;;;;0.20;0.20;;;;;;;;;;5051768;28;20119;-88
2021/06/24 11:00:22;;;;;;;0.40;0.40;;;;;;;;;;5052432;28;20033;-89
2021/06/24 11:02:48;;;;;;;0.30;0.30;;;;;;;;;;5052935;28;20032;-89
2021/06/24 11:05:21;;;;;;;0.88;0.32;;;;;;;;;;5038558;28;20037;-88
2021/06/24 11:07:55;;;;;;;0.45;0.30;;;20.40;54.70;;;;;;5049790;28;20029;-89
2021/06/24 11:10:26;;;;;;;0.38;0.30;;;20.40;56.00;;;;;;5040822;28;20023;-86
2021/06/24 11:12:55;;;;;;;0.50;0.30;;;20.50;56.20;;;;;;5051268;28;20047;-87
2021/06/24 11:15:49;;;;;;;2.75;0.30;;;20.50;56.70;;;;;;5047273;28;20087;-89
2021/06/24 11:18:31;;;;;;;0.30;0.30;;;;;;;;;;5048716;28;20030;-88
2021/06/24 11:21:07;;;;;;;0.30;0.30;;;;;;;;;;5052368;28;20079;-87
2021/06/24 11:23:46;;;;;;;0.30;0.28;;;;;;;;;;5068048;28;20094;-88
2021/06/24 11:26:14;;;;;;;1.13;0.63;;;;;;;;;;5044674;28;20119;-89
2021/06/24 11:28:58;;;;;;;0.20;0.20;;;;;;;;;;5067300;28;20094;-92
2021/06/24 11:31:35;;;;;;;0.40;0.40;;;;;;;;;;5063842;28;20037;-88
2021/06/24 11:36:30;;;;;;;1.75;0.45;;;;;;;;;;5044658;28;20034;-88
2021/06/24 11:38:56;;;;;;;0.22;0.20;;;;;;;;;;5049151;28;20383;-87
2021/06/24 11:41:22;;;;;;;0.50;0.22;;;21.00;54.00;;;;;;5051738;28;20032;-88
2021/06/24 11:44:05;;;;;;;0.32;0.22;;;20.80;53.10;;;;;;5042500;28;20028;-86
2021/06/24 11:46:36;;;;;;;11.93;0.60;;;20.70;53.50;;;;;;5035250;28;20041;-87
2021/06/24 12:00:29;;;;;;;2.22;0.38;;;;;;;;;;5043817;28;20397;-87
2021/06/24 12:03:07;;;;;;;2.13;0.68;;;;;;;;;;5048734;28;20044;-87
2021/06/24 12:05:33;;;;;;;1.00;0.50;;;;;;;;;;5031718;28;20037;-88
2021/06/24 12:07:59;;;;;;;1.17;0.60;;;;;;;;;;5050789;28;20029;-88
2021/06/24 12:10:25;;;;;;;1.35;0.80;;;;;;;;;;5036053;28;20509;-87
2021/06/24 12:12:51;;;;;;;0.98;0.70;;;;;;;;;;5047052;28;20041;-87
2021/06/24 12:15:18;;;;;;;2.35;0.77;;;;;;;;;;5037234;28;20045;-89
2021/06/24 12:17:45;;;;;;;0.87;0.60;;;;;;;;;;5050244;28;20112;-88
2021/06/24 12:20:15;;;;;;;1.13;0.70;;;;;;;;;;5032067;28;20253;-88
2021/06/24 12:22:59;;;;;;;1.38;0.68;;;20.60;55.20;;;;;;5048602;28;20124;-88
2021/06/24 12:25:28;;;;;;;1.23;0.80;;;20.90;54.90;;;;;;5051274;28;20044;-89
2021/06/24 12:27:59;;;;;;;1.08;0.60;;;21.10;51.90;;;;;;5048639;28;20025;-89
2021/06/24 12:30:26;;;;;;;0.98;0.70;;;;;;;;;;5051148;28;20413;-89
2021/06/24 12:33:07;;;;;;;1.20;0.70;;;21.40;53.10;;;;;;5050330;28;20025;-90
2021/06/24 12:35:33;;;;;;;0.57;0.30;;;;;;;;;;5032016;28;20022;-90
2021/06/24 12:38:00;;;;;;;0.45;0.30;;;;;;;;;;5032409;28;20033;-93
2021/06/24 12:40:31;;;;;;;1.17;0.43;;;;;;;;;;5046890;28;20056;-92
2021/06/24 12:42:57;;;;;;;0.90;0.40;;;;;;;;;;5051139;28;20029;-88
2021/06/24 12:45:26;;;;;;;1.90;0.80;;;21.80;52.00;;;;;;5043514;28;20028;-89
2021/06/24 12:47:52;;;;;;;0.73;0.40;;;;;;;;;;5032438;28;20030;-88
2021/06/24 12:50:23;;;;;;;1.57;0.77;;;;;;;;;;5046188;28;20389;-91
2021/06/24 12:52:50;;;;;;;1.20;1.02;;;;;;;;;;5050087;28;20029;-92
2021/06/24 12:55:32;;;;;;;;;;;21.50;50.70;;;;;;5024018;28;20038;-92
2021/06/24 12:58:01;;;;;;;1.17;0.75;;;;;;;;;;5011681;28;20047;-87
2021/06/24 13:00:28;;;;;;;1.55;0.80;;;;;;;;;;5010227;28;20029;-88
2021/06/24 13:02:54;;;;;;;4.20;0.77;;;;;;;;;;5011221;28;20061;-89
2021/06/24 13:05:33;;;;;;;4.20;1.05;;;;;;;;;;5009655;28;20107;-94
2021/06/24 13:07:59;;;;;;;1.05;0.60;;;;;;;;;;4994744;28;20033;-92
2021/06/24 13:10:26;;;;;;;0.57;0.50;;;;;;;;;;5003473;28;20022;-93
2021/06/24 13:12:55;;;;;;;1.98;0.80;;;;;;;;;;5001313;28;20026;-91
2021/06/24 13:15:33;;;;;;;1.52;1.02;;;;;;;;;;5011743;28;20061;-93
2021/06/24 13:17:59;;;;;;;1.48;1.10;;;;;;;;;;5011691;28;20052;-92
2021/06/24 13:20:25;;;;;;;1.77;1.23;;;;;;;;;;5009748;28;20038;-93
2021/06/24 13:22:51;;;;;;;2.67;1.17;;;;;;;;;;4996767;28;20022;-92
2021/06/24 13:25:21;;;;;;;20.35;1.67;;;;;;;;;;5002054;28;20034;-92
2021/06/24 13:27:47;;;;;;;1.83;1.15;;;;;;;;;;5004025;28;20018;-92
2021/06/24 13:30:20;;;;;;;2.58;1.52;;;;;;;;;;5003423;28;20081;-92
2021/06/24 13:32:47;;;;;;;2.72;1.20;;;;;;;;;;4996477;28;20553;-88
2021/06/24 13:35:16;;;;;;;2.17;1.17;;;20.60;51.20;;;;;;5015374;28;20029;-92
2021/06/24 13:37:48;;;;;;;1.65;1.10;;;;;;;;;;4997898;28;20038;-93
2021/06/24 13:40:16;;;;;;;2.05;1.13;;;20.50;50.30;;;;;;4995979;28;20077;-93
2021/06/24 13:42:49;;;;;;;1.92;1.65;;;20.50;51.00;;;;;;5003550;28;20030;-90
2021/06/24 13:45:15;;;;;;;1.58;1.10;;;;;;;;;;5013806;28;20168;-90
2021/06/24 13:47:41;;;;;;;1.92;0.95;;;;;;;;;;5014678;28;20030;-90
2021/06/24 13:50:07;;;;;;;2.38;1.05;;;;;;;;;;5013135;28;20036;-87
2021/06/24 13:52:33;;;;;;;2.50;1.08;;;;;;;;;;4997667;28;20109;-86
2021/06/24 13:55:00;;;;;;;2.13;1.20;;;;;;;;;;5004220;28;20156;-87
2021/06/24 13:57:26;;;;;;;1.60;0.70;;;;;;;;;;5009221;28;20077;-88
2021/06/24 13:59:52;;;;;;;1.80;1.25;;;;;;;;;;5011211;28;20499;-88
2021/06/24 14:02:18;;;;;;;1.75;1.08;;;;;;;;;;5013501;28;20036;-89
2021/06/24 14:04:44;;;;;;;3.17;1.60;;;;;;;;;;5008978;28;20030;-90
2021/06/24 14:07:10;;;;;;;2.55;1.77;;;;;;;;;;5013749;28;20586;-88
2021/06/24 14:09:36;;;;;;;3.42;1.50;;;;;;;;;;5009292;28;20117;-88
2021/06/24 14:12:02;;;;;;;2.22;1.27;;;;;;;;;;4996075;28;20026;-89
2021/06/24 14:14:28;;;;;;;6.57;1.85;;;;;;;;;;4994163;28;20069;-93
2021/06/24 14:16:54;;;;;;;2.63;1.30;;;;;;;;;;5011572;28;20022;-87
2021/06/24 14:19:20;;;;;;;4.05;1.83;;;;;;;;;;5011946;28;20561;-87
2021/06/24 14:21:47;;;;;;;1.50;1.33;;;;;;;;;;5013282;28;20022;-89
2021/06/24 14:24:13;;;;;;;5.28;1.90;;;;;;;;;;5010497;28;20038;-88
2021/06/24 14:26:39;;;;;;;2.20;1.55;;;;;;;;;;5012122;28;20062;-86
2021/06/24 14:29:07;;;;;;;3.10;1.88;;;;;;;;;;4991961;28;20113;-87
2021/06/24 14:31:33;;;;;;;3.72;1.60;;;;;;;;;;5009001;28;20117;-88
2021/06/24 14:33:59;;;;;;;2.20;1.33;;;;;;;;;;5008711;28;20564;-93
2021/06/24 14:36:25;;;;;;;2.45;1.20;;;;;;;;;;4994388;28;20084;-94
2021/06/24 14:38:51;;;;;;;3.42;1.58;;;;;;;;;;5012263;28;20030;-94
2021/06/24 14:41:17;;;;;;;5.55;1.52;;;;;;;;;;5009957;28;20122;-93